sensor_id;sensor_type;location;lat;lon;timestamp;temperature;humidity
26342;DHT22;14054;50.108;8.640;2024-03-02T00:00:49;6.30;99.90
26342;DHT22;14054;50.108;8.640;2024-03-02T00:03:15;6.30;99.90
26342;DHT22;14054;50.108;8.640;2024-03-02T00:05:40;6.20;99.90
26342;DHT22;14054;50.108;8.640;2024-03-02T00:08:06;6.20;99.90
26342;DHT22;14054;50.108;8.640;2024-03-02T00:10:37;6.20;99.90
26342;DHT22;14054;50.108;8.640;2024-03-02T00:13:05;6.20;99.90
26342;DHT22;14054;50.108;8.640;2024-03-02T00:15:41;6.30;99.90
26342;DHT22;14054;50.108;8.640;2024-03-02T00:18:10;6.30;99.90
26342;DHT22;14054;50.108;8.640;2024-03-02T00:20:36;6.20;99.90
26342;DHT22;14054;50.108;8.640;2024-03-02T00:23:07;6.10;99.90
26342;DHT22;14054;50.108;8.640;2024-03-02T00:25:41;6.20;99.90
26342;DHT22;14054;50.108;8.640;2024-03-02T00:28:16;6.20;99.90
26342;DHT22;14054;50.108;8.640;2024-03-02T00:30:51;6.20;99.90
26342;DHT22;14054;50.108;8.640;2024-03-02T00:33:19;6.20;99.90
26342;DHT22;14054;50.108;8.640;2024-03-02T00:35:45;6.20;99.90
26342;DHT22;14054;50.108;8.640;2024-03-02T00:38:10;6.20;99.90
26342;DHT22;14054;50.108;8.640;2024-03-02T00:40:36;6.20;99.90
26342;DHT22;14054;50.108;8.640;2024-03-02T00:43:02;6.20;99.90
26342;DHT22;14054;50.108;8.640;2024-03-02T00:45:28;6.10;99.90
26342;DHT22;14054;50.108;8.640;2024-03-02T00:47:54;6.10;99.90
26342;DHT22;14054;50.108;8.640;2024-03-02T00:50:20;6.10;99.90
26342;DHT22;14054;50.108;8.640;2024-03-02T00:52:46;6.10;99.90
26342;DHT22;14054;50.108;8.640;2024-03-02T00:55:14;6.10;99.90
26342;DHT22;14054;50.108;8.640;2024-03-02T00:57:39;6.00;99.90
26342;DHT22;14054;50.108;8.640;2024-03-02T01:00:05;6.00;99.90
26342;DHT22;14054;50.108;8.640;2024-03-02T01:02:35;5.90;99.90
26342;DHT22;14054;50.108;8.640;2024-03-02T01:05:00;5.90;99.90
26342;DHT22;14054;50.108;8.640;2024-03-02T01:07:26;5.80;99.90
26342;DHT22;14054;50.108;8.640;2024-03-02T01:09:51;5.80;99.90
26342;DHT22;14054;50.108;8.640;2024-03-02T01:12:17;5.70;99.90
26342;DHT22;14054;50.108;8.640;2024-03-02T01:14:42;5.70;99.90
26342;DHT22;14054;50.108;8.640;2024-03-02T01:17:08;5.60;99.90
26342;DHT22;14054;50.108;8.640;2024-03-02T01:19:33;5.60;99.90
26342;DHT22;14054;50.108;8.640;2024-03-02T01:21:59;5.70;99.90
26342;DHT22;14054;50.108;8.640;2024-03-02T01:24:25;5.60;99.90
26342;DHT22;14054;50.108;8.640;2024-03-02T01:26:50;5.60;99.90
26342;DHT22;14054;50.108;8.640;2024-03-02T01:29:16;5.60;99.90
26342;DHT22;14054;50.108;8.640;2024-03-02T01:31:41;5.50;99.90
26342;DHT22;14054;50.108;8.640;2024-03-02T01:34:08;5.50;99.90
26342;DHT22;14054;50.108;8.640;2024-03-02T01:36:33;5.50;99.90
26342;DHT22;14054;50.108;8.640;2024-03-02T01:38:59;5.60;99.90
26342;DHT22;14054;50.108;8.640;2024-03-02T01:41:25;5.50;99.90
26342;DHT22;14054;50.108;8.640;2024-03-02T01:43:50;5.60;99.90
26342;DHT22;14054;50.108;8.640;2024-03-02T01:46:16;5.60;99.90
26342;DHT22;14054;50.108;8.640;2024-03-02T01:48:41;5.60;99.90
26342;DHT22;14054;50.108;8.640;2024-03-02T01:51:07;5.60;99.90
26342;DHT22;14054;50.108;8.640;2024-03-02T01:53:33;5.60;99.90
26342;DHT22;14054;50.108;8.640;2024-03-02T01:55:59;5.50;99.90
26342;DHT22;14054;50.108;8.640;2024-03-02T01:58:24;5.50;99.90
26342;DHT22;14054;50.108;8.640;2024-03-02T02:00:50;5.60;99.90
26342;DHT22;14054;50.108;8.640;2024-03-02T02:03:15;5.60;99.90
26342;DHT22;14054;50.108;8.640;2024-03-02T02:05:42;5.60;99.90
26342;DHT22;14054;50.108;8.640;2024-03-02T02:08:07;5.60;99.90
26342;DHT22;14054;50.108;8.640;2024-03-02T02:10:33;5.60;99.90
26342;DHT22;14054;50.108;8.640;2024-03-02T02:12:58;5.60;99.90
26342;DHT22;14054;50.108;8.640;2024-03-02T02:15:26;5.50;99.90
26342;DHT22;14054;50.108;8.640;2024-03-02T02:17:53;5.50;99.90
26342;DHT22;14054;50.108;8.640;2024-03-02T02:20:18;5.50;99.90
26342;DHT22;14054;50.108;8.640;2024-03-02T02:23:05;5.40;99.90
26342;DHT22;14054;50.108;8.640;2024-03-02T02:25:33;5.40;99.90
26342;DHT22;14054;50.108;8.640;2024-03-02T02:27:59;5.50;99.90
26342;DHT22;14054;50.108;8.640;2024-03-02T02:30:27;5.40;99.90
26342;DHT22;14054;50.108;8.640;2024-03-02T02:32:53;5.40;99.90
26342;DHT22;14054;50.108;8.640;2024-03-02T02:35:18;5.40;99.90
26342;DHT22;14054;50.108;8.640;2024-03-02T02:37:45;5.40;99.90
26342;DHT22;14054;50.108;8.640;2024-03-02T02:40:12;5.40;99.90
26342;DHT22;14054;50.108;8.640;2024-03-02T02:42:38;5.30;99.90
26342;DHT22;14054;50.108;8.640;2024-03-02T02:45:04;5.30;99.90
26342;DHT22;14054;50.108;8.640;2024-03-02T02:47:30;5.20;99.90
26342;DHT22;14054;50.108;8.640;2024-03-02T02:49:55;5.20;99.90
26342;DHT22;14054;50.108;8.640;2024-03-02T02:52:21;5.20;99.90
26342;DHT22;14054;50.108;8.640;2024-03-02T02:54:46;5.20;99.90
26342;DHT22;14054;50.108;8.640;2024-03-02T02:57:12;5.20;99.90
26342;DHT22;14054;50.108;8.640;2024-03-02T02:59:37;5.20;99.90
26342;DHT22;14054;50.108;8.640;2024-03-02T03:02:03;5.20;99.90
26342;DHT22;14054;50.108;8.640;2024-03-02T03:04:29;5.10;99.90
26342;DHT22;14054;50.108;8.640;2024-03-02T03:06:54;5.20;99.90
26342;DHT22;14054;50.108;8.640;2024-03-02T03:09:20;5.10;99.90
26342;DHT22;14054;50.108;8.640;2024-03-02T03:11:46;5.20;99.90
26342;DHT22;14054;50.108;8.640;2024-03-02T03:14:11;5.20;99.90
26342;DHT22;14054;50.108;8.640;2024-03-02T03:16:37;5.20;99.90
26342;DHT22;14054;50.108;8.640;2024-03-02T03:19:02;5.20;99.90
26342;DHT22;14054;50.108;8.640;2024-03-02T03:21:28;5.20;99.90
26342;DHT22;14054;50.108;8.640;2024-03-02T03:23:53;5.20;99.90
26342;DHT22;14054;50.108;8.640;2024-03-02T03:26:20;5.20;99.90
26342;DHT22;14054;50.108;8.640;2024-03-02T03:28:46;5.10;99.90
26342;DHT22;14054;50.108;8.640;2024-03-02T03:31:11;5.10;99.90
26342;DHT22;14054;50.108;8.640;2024-03-02T03:33:37;5.10;99.90
26342;DHT22;14054;50.108;8.640;2024-03-02T03:36:03;5.10;99.90
26342;DHT22;14054;50.108;8.640;2024-03-02T03:38:29;5.00;99.90
26342;DHT22;14054;50.108;8.640;2024-03-02T03:40:55;5.10;99.90
26342;DHT22;14054;50.108;8.640;2024-03-02T03:43:20;5.10;99.90
26342;DHT22;14054;50.108;8.640;2024-03-02T03:45:46;5.10;99.90
26342;DHT22;14054;50.108;8.640;2024-03-02T03:48:11;5.10;99.90
26342;DHT22;14054;50.108;8.640;2024-03-02T03:50:36;5.10;99.90
26342;DHT22;14054;50.108;8.640;2024-03-02T03:53:03;5.10;99.90
26342;DHT22;14054;50.108;8.640;2024-03-02T03:55:29;5.10;99.90
26342;DHT22;14054;50.108;8.640;2024-03-02T03:57:54;5.10;99.90
26342;DHT22;14054;50.108;8.640;2024-03-02T04:00:20;5.10;99.90
26342;DHT22;14054;50.108;8.640;2024-03-02T04:02:45;5.10;99.90
26342;DHT22;14054;50.108;8.640;2024-03-02T04:05:11;5.00;99.90
26342;DHT22;14054;50.108;8.640;2024-03-02T04:07:37;5.00;99.90
26342;DHT22;14054;50.108;8.640;2024-03-02T04:10:09;5.00;99.90
26342;DHT22;14054;50.108;8.640;2024-03-02T04:12:36;5.00;99.90
26342;DHT22;14054;50.108;8.640;2024-03-02T04:15:03;5.10;99.90
26342;DHT22;14054;50.108;8.640;2024-03-02T04:17:30;5.10;99.90
26342;DHT22;14054;50.108;8.640;2024-03-02T04:19:56;5.10;99.90
26342;DHT22;14054;50.108;8.640;2024-03-02T04:22:21;5.10;99.90
26342;DHT22;14054;50.108;8.640;2024-03-02T04:24:47;5.10;99.90
26342;DHT22;14054;50.108;8.640;2024-03-02T04:27:12;5.10;99.90
26342;DHT22;14054;50.108;8.640;2024-03-02T04:29:38;5.10;99.90
26342;DHT22;14054;50.108;8.640;2024-03-02T04:32:03;5.10;99.90
26342;DHT22;14054;50.108;8.640;2024-03-02T04:34:29;5.10;99.90
26342;DHT22;14054;50.108;8.640;2024-03-02T04:36:54;5.10;99.90
26342;DHT22;14054;50.108;8.640;2024-03-02T04:39:20;5.10;99.90
26342;DHT22;14054;50.108;8.640;2024-03-02T04:41:45;5.10;99.90
26342;DHT22;14054;50.108;8.640;2024-03-02T04:44:11;5.10;99.90
26342;DHT22;14054;50.108;8.640;2024-03-02T04:46:36;5.10;99.90
26342;DHT22;14054;50.108;8.640;2024-03-02T04:49:02;5.00;99.90
26342;DHT22;14054;50.108;8.640;2024-03-02T04:51:27;4.90;99.90
26342;DHT22;14054;50.108;8.640;2024-03-02T04:53:53;5.00;99.90
26342;DHT22;14054;50.108;8.640;2024-03-02T04:56:18;4.90;99.90
26342;DHT22;14054;50.108;8.640;2024-03-02T04:59:02;4.90;99.90
26342;DHT22;14054;50.108;8.640;2024-03-02T05:01:28;4.80;99.90
26342;DHT22;14054;50.108;8.640;2024-03-02T05:03:53;4.80;99.90
26342;DHT22;14054;50.108;8.640;2024-03-02T05:06:19;4.80;99.90
26342;DHT22;14054;50.108;8.640;2024-03-02T05:08:44;4.70;99.90
26342;DHT22;14054;50.108;8.640;2024-03-02T05:11:10;4.70;99.90
26342;DHT22;14054;50.108;8.640;2024-03-02T05:13:54;4.60;99.90
26342;DHT22;14054;50.108;8.640;2024-03-02T05:16:19;4.60;99.90
26342;DHT22;14054;50.108;8.640;2024-03-02T05:18:45;4.60;99.90
26342;DHT22;14054;50.108;8.640;2024-03-02T05:21:11;4.70;99.90
26342;DHT22;14054;50.108;8.640;2024-03-02T05:23:36;4.60;99.90
26342;DHT22;14054;50.108;8.640;2024-03-02T05:26:02;4.60;99.90
26342;DHT22;14054;50.108;8.640;2024-03-02T05:28:28;4.60;99.90
26342;DHT22;14054;50.108;8.640;2024-03-02T05:30:53;4.60;99.90
26342;DHT22;14054;50.108;8.640;2024-03-02T05:33:19;4.60;99.90
26342;DHT22;14054;50.108;8.640;2024-03-02T05:35:47;4.50;99.90
26342;DHT22;14054;50.108;8.640;2024-03-02T05:38:15;4.50;99.90
26342;DHT22;14054;50.108;8.640;2024-03-02T05:40:40;4.40;99.90
26342;DHT22;14054;50.108;8.640;2024-03-02T05:43:06;4.40;99.90
26342;DHT22;14054;50.108;8.640;2024-03-02T05:45:31;4.40;99.90
26342;DHT22;14054;50.108;8.640;2024-03-02T05:47:57;4.40;99.90
26342;DHT22;14054;50.108;8.640;2024-03-02T05:50:22;4.40;99.90
26342;DHT22;14054;50.108;8.640;2024-03-02T05:52:48;4.40;99.90
26342;DHT22;14054;50.108;8.640;2024-03-02T05:55:13;4.40;99.90
26342;DHT22;14054;50.108;8.640;2024-03-02T05:57:38;4.40;99.90
26342;DHT22;14054;50.108;8.640;2024-03-02T06:00:15;4.40;99.90
26342;DHT22;14054;50.108;8.640;2024-03-02T06:02:42;4.40;99.90
26342;DHT22;14054;50.108;8.640;2024-03-02T06:05:07;4.50;99.90
26342;DHT22;14054;50.108;8.640;2024-03-02T06:07:33;4.50;99.90
26342;DHT22;14054;50.108;8.640;2024-03-02T06:09:58;4.50;99.90
26342;DHT22;14054;50.108;8.640;2024-03-02T06:12:24;4.60;99.90
26342;DHT22;14054;50.108;8.640;2024-03-02T06:14:49;4.60;99.90
26342;DHT22;14054;50.108;8.640;2024-03-02T06:17:15;4.60;99.90
26342;DHT22;14054;50.108;8.640;2024-03-02T06:19:40;4.70;99.90
26342;DHT22;14054;50.108;8.640;2024-03-02T06:22:06;4.70;99.90
26342;DHT22;14054;50.108;8.640;2024-03-02T06:24:31;4.60;99.90
26342;DHT22;14054;50.108;8.640;2024-03-02T06:26:57;4.70;99.90
26342;DHT22;14054;50.108;8.640;2024-03-02T06:29:22;4.70;99.90
26342;DHT22;14054;50.108;8.640;2024-03-02T06:31:48;4.70;99.90
26342;DHT22;14054;50.108;8.640;2024-03-02T06:34:13;4.80;99.90
26342;DHT22;14054;50.108;8.640;2024-03-02T06:36:39;4.80;99.90
26342;DHT22;14054;50.108;8.640;2024-03-02T06:39:05;4.90;99.90
26342;DHT22;14054;50.108;8.640;2024-03-02T06:41:31;4.90;99.90
26342;DHT22;14054;50.108;8.640;2024-03-02T06:43:56;5.00;99.90
26342;DHT22;14054;50.108;8.640;2024-03-02T06:46:25;5.00;99.90
26342;DHT22;14054;50.108;8.640;2024-03-02T06:48:50;4.90;99.90
26342;DHT22;14054;50.108;8.640;2024-03-02T06:51:16;4.90;99.90
26342;DHT22;14054;50.108;8.640;2024-03-02T06:53:41;4.90;99.90
26342;DHT22;14054;50.108;8.640;2024-03-02T06:56:07;5.00;99.90
26342;DHT22;14054;50.108;8.640;2024-03-02T06:58:33;5.00;99.90
26342;DHT22;14054;50.108;8.640;2024-03-02T07:00:59;5.00;99.90
26342;DHT22;14054;50.108;8.640;2024-03-02T07:03:25;5.00;99.90
26342;DHT22;14054;50.108;8.640;2024-03-02T07:05:51;5.00;99.90
26342;DHT22;14054;50.108;8.640;2024-03-02T07:08:17;5.00;99.90
26342;DHT22;14054;50.108;8.640;2024-03-02T07:10:42;5.00;99.90
26342;DHT22;14054;50.108;8.640;2024-03-02T07:13:08;5.00;99.90
26342;DHT22;14054;50.108;8.640;2024-03-02T07:15:33;5.00;99.90
26342;DHT22;14054;50.108;8.640;2024-03-02T07:18:37;4.90;99.90
26342;DHT22;14054;50.108;8.640;2024-03-02T07:21:10;5.00;99.90
26342;DHT22;14054;50.108;8.640;2024-03-02T07:23:36;5.00;99.90
26342;DHT22;14054;50.108;8.640;2024-03-02T07:26:01;5.00;99.90
26342;DHT22;14054;50.108;8.640;2024-03-02T07:28:27;5.00;99.90
26342;DHT22;14054;50.108;8.640;2024-03-02T07:31:03;5.10;99.90
26342;DHT22;14054;50.108;8.640;2024-03-02T07:33:30;5.10;99.90
26342;DHT22;14054;50.108;8.640;2024-03-02T07:35:56;5.20;99.90
26342;DHT22;14054;50.108;8.640;2024-03-02T07:38:21;5.20;99.90
26342;DHT22;14054;50.108;8.640;2024-03-02T07:40:48;5.20;99.90
26342;DHT22;14054;50.108;8.640;2024-03-02T07:43:16;5.20;99.90
26342;DHT22;14054;50.108;8.640;2024-03-02T07:45:42;5.40;99.90
26342;DHT22;14054;50.108;8.640;2024-03-02T07:48:07;5.50;99.90
26342;DHT22;14054;50.108;8.640;2024-03-02T07:50:33;5.60;99.90
26342;DHT22;14054;50.108;8.640;2024-03-02T07:53:01;5.70;99.90
26342;DHT22;14054;50.108;8.640;2024-03-02T07:55:26;5.80;99.90
26342;DHT22;14054;50.108;8.640;2024-03-02T07:57:51;5.90;99.90
26342;DHT22;14054;50.108;8.640;2024-03-02T08:00:17;6.10;99.90
26342;DHT22;14054;50.108;8.640;2024-03-02T08:02:43;6.10;99.90
26342;DHT22;14054;50.108;8.640;2024-03-02T08:05:08;6.20;99.90
26342;DHT22;14054;50.108;8.640;2024-03-02T08:07:34;6.40;99.90
26342;DHT22;14054;50.108;8.640;2024-03-02T08:10:00;6.60;99.90
26342;DHT22;14054;50.108;8.640;2024-03-02T08:12:25;6.60;99.90
26342;DHT22;14054;50.108;8.640;2024-03-02T08:14:51;6.90;99.90
26342;DHT22;14054;50.108;8.640;2024-03-02T08:17:17;7.20;99.90
26342;DHT22;14054;50.108;8.640;2024-03-02T08:19:43;7.20;99.90
26342;DHT22;14054;50.108;8.640;2024-03-02T08:22:09;7.30;99.90
26342;DHT22;14054;50.108;8.640;2024-03-02T08:24:35;7.30;99.90
26342;DHT22;14054;50.108;8.640;2024-03-02T08:27:01;7.30;99.90
26342;DHT22;14054;50.108;8.640;2024-03-02T08:29:27;7.20;99.90
26342;DHT22;14054;50.108;8.640;2024-03-02T08:31:53;7.40;99.90
26342;DHT22;14054;50.108;8.640;2024-03-02T08:34:19;7.50;99.90
26342;DHT22;14054;50.108;8.640;2024-03-02T08:36:45;7.60;99.90
26342;DHT22;14054;50.108;8.640;2024-03-02T08:39:11;7.70;99.90
26342;DHT22;14054;50.108;8.640;2024-03-02T08:41:41;7.80;99.90
26342;DHT22;14054;50.108;8.640;2024-03-02T08:44:08;7.90;99.90
26342;DHT22;14054;50.108;8.640;2024-03-02T08:46:34;8.00;99.90
26342;DHT22;14054;50.108;8.640;2024-03-02T08:49:00;8.00;99.90
26342;DHT22;14054;50.108;8.640;2024-03-02T08:51:25;8.10;99.90
26342;DHT22;14054;50.108;8.640;2024-03-02T08:53:51;8.20;99.90
26342;DHT22;14054;50.108;8.640;2024-03-02T08:56:16;8.30;99.90
26342;DHT22;14054;50.108;8.640;2024-03-02T08:58:43;8.40;99.90
26342;DHT22;14054;50.108;8.640;2024-03-02T09:01:10;8.50;99.90
26342;DHT22;14054;50.108;8.640;2024-03-02T09:03:36;8.70;99.90
26342;DHT22;14054;50.108;8.640;2024-03-02T09:06:02;8.90;99.90
26342;DHT22;14054;50.108;8.640;2024-03-02T09:08:28;8.80;99.90
26342;DHT22;14054;50.108;8.640;2024-03-02T09:10:54;8.90;99.90
26342;DHT22;14054;50.108;8.640;2024-03-02T09:13:20;9.00;99.90
26342;DHT22;14054;50.108;8.640;2024-03-02T09:15:46;9.10;99.90
26342;DHT22;14054;50.108;8.640;2024-03-02T09:18:11;9.30;99.90
26342;DHT22;14054;50.108;8.640;2024-03-02T09:20:37;9.50;99.90
26342;DHT22;14054;50.108;8.640;2024-03-02T09:23:02;9.70;99.90
26342;DHT22;14054;50.108;8.640;2024-03-02T09:25:28;9.90;99.90
26342;DHT22;14054;50.108;8.640;2024-03-02T09:27:53;9.60;99.90
26342;DHT22;14054;50.108;8.640;2024-03-02T09:30:19;9.70;99.90
26342;DHT22;14054;50.108;8.640;2024-03-02T09:32:44;9.90;99.90
26342;DHT22;14054;50.108;8.640;2024-03-02T09:35:09;9.90;99.90
26342;DHT22;14054;50.108;8.640;2024-03-02T09:37:35;10.00;99.90
26342;DHT22;14054;50.108;8.640;2024-03-02T09:40:01;10.20;99.90
26342;DHT22;14054;50.108;8.640;2024-03-02T09:42:27;10.40;99.90
26342;DHT22;14054;50.108;8.640;2024-03-02T09:44:53;10.60;99.90
26342;DHT22;14054;50.108;8.640;2024-03-02T09:47:18;10.70;99.90
26342;DHT22;14054;50.108;8.640;2024-03-02T09:49:44;10.30;99.90
26342;DHT22;14054;50.108;8.640;2024-03-02T09:52:10;10.20;99.90
26342;DHT22;14054;50.108;8.640;2024-03-02T09:54:36;10.30;99.90
26342;DHT22;14054;50.108;8.640;2024-03-02T09:57:02;10.30;99.90
26342;DHT22;14054;50.108;8.640;2024-03-02T09:59:28;10.70;99.90
26342;DHT22;14054;50.108;8.640;2024-03-02T10:01:58;11.10;99.90
26342;DHT22;14054;50.108;8.640;2024-03-02T10:04:25;11.20;99.90
26342;DHT22;14054;50.108;8.640;2024-03-02T10:06:51;11.30;99.90
26342;DHT22;14054;50.108;8.640;2024-03-02T10:09:27;11.20;99.90
26342;DHT22;14054;50.108;8.640;2024-03-02T10:12:07;11.30;99.90
26342;DHT22;14054;50.108;8.640;2024-03-02T10:14:33;11.80;99.90
26342;DHT22;14054;50.108;8.640;2024-03-02T10:17:04;11.90;99.90
26342;DHT22;14054;50.108;8.640;2024-03-02T10:19:30;11.80;99.90
26342;DHT22;14054;50.108;8.640;2024-03-02T10:22:00;11.70;99.90
26342;DHT22;14054;50.108;8.640;2024-03-02T10:24:26;11.70;99.90
26342;DHT22;14054;50.108;8.640;2024-03-02T10:26:52;12.20;99.90
26342;DHT22;14054;50.108;8.640;2024-03-02T10:29:18;12.40;99.90
26342;DHT22;14054;50.108;8.640;2024-03-02T10:31:45;12.40;99.90
26342;DHT22;14054;50.108;8.640;2024-03-02T10:34:11;12.30;99.90
26342;DHT22;14054;50.108;8.640;2024-03-02T10:36:40;12.10;99.90
26342;DHT22;14054;50.108;8.640;2024-03-02T10:39:07;11.70;99.90
26342;DHT22;14054;50.108;8.640;2024-03-02T10:41:37;11.20;99.90
26342;DHT22;14054;50.108;8.640;2024-03-02T10:44:04;11.40;99.90
26342;DHT22;14054;50.108;8.640;2024-03-02T10:46:32;11.90;99.90
26342;DHT22;14054;50.108;8.640;2024-03-02T10:48:58;12.80;99.90
26342;DHT22;14054;50.108;8.640;2024-03-02T10:51:25;13.50;99.90
26342;DHT22;14054;50.108;8.640;2024-03-02T10:53:52;12.40;99.90
26342;DHT22;14054;50.108;8.640;2024-03-02T10:56:22;12.70;99.90
26342;DHT22;14054;50.108;8.640;2024-03-02T11:01:39;13.40;99.90
26342;DHT22;14054;50.108;8.640;2024-03-02T11:04:08;13.30;99.90
26342;DHT22;14054;50.108;8.640;2024-03-02T11:06:34;13.70;99.90
26342;DHT22;14054;50.108;8.640;2024-03-02T11:09:06;13.70;99.90
26342;DHT22;14054;50.108;8.640;2024-03-02T11:11:36;13.40;99.90
26342;DHT22;14054;50.108;8.640;2024-03-02T11:14:04;13.90;99.90
26342;DHT22;14054;50.108;8.640;2024-03-02T11:16:37;14.10;99.90
26342;DHT22;14054;50.108;8.640;2024-03-02T11:19:08;14.00;98.60
26342;DHT22;14054;50.108;8.640;2024-03-02T11:21:35;14.10;98.90
26342;DHT22;14054;50.108;8.640;2024-03-02T11:26:46;14.40;98.20
26342;DHT22;14054;50.108;8.640;2024-03-02T11:32:04;15.90;94.90
26342;DHT22;14054;50.108;8.640;2024-03-02T11:34:31;16.20;93.30
26342;DHT22;14054;50.108;8.640;2024-03-02T11:37:03;15.70;92.60
26342;DHT22;14054;50.108;8.640;2024-03-02T11:39:30;15.60;93.00
26342;DHT22;14054;50.108;8.640;2024-03-02T11:41:56;15.70;92.30
26342;DHT22;14054;50.108;8.640;2024-03-02T11:44:24;17.20;91.80
26342;DHT22;14054;50.108;8.640;2024-03-02T11:46:59;18.20;88.30
26342;DHT22;14054;50.108;8.640;2024-03-02T11:49:39;18.70;84.40
26342;DHT22;14054;50.108;8.640;2024-03-02T11:52:06;19.30;80.30
26342;DHT22;14054;50.108;8.640;2024-03-02T11:54:33;19.90;75.40
26342;DHT22;14054;50.108;8.640;2024-03-02T11:57:02;20.30;73.50
26342;DHT22;14054;50.108;8.640;2024-03-02T11:59:31;20.50;69.80
26342;DHT22;14054;50.108;8.640;2024-03-02T12:01:58;20.90;68.30
26342;DHT22;14054;50.108;8.640;2024-03-02T12:04:24;21.10;65.90
26342;DHT22;14054;50.108;8.640;2024-03-02T12:06:59;21.50;64.00
26342;DHT22;14054;50.108;8.640;2024-03-02T12:09:28;21.70;62.50
26342;DHT22;14054;50.108;8.640;2024-03-02T12:12:08;21.60;59.30
26342;DHT22;14054;50.108;8.640;2024-03-02T12:14:36;20.30;62.00
26342;DHT22;14054;50.108;8.640;2024-03-02T12:17:02;20.30;62.90
26342;DHT22;14054;50.108;8.640;2024-03-02T12:19:28;20.90;61.90
26342;DHT22;14054;50.108;8.640;2024-03-02T12:21:56;21.60;59.40
26342;DHT22;14054;50.108;8.640;2024-03-02T12:24:21;20.90;61.40
26342;DHT22;14054;50.108;8.640;2024-03-02T12:26:51;22.90;58.00
26342;DHT22;14054;50.108;8.640;2024-03-02T12:29:18;22.90;54.90
26342;DHT22;14054;50.108;8.640;2024-03-02T12:31:44;22.20;54.50
26342;DHT22;14054;50.108;8.640;2024-03-02T12:34:14;22.00;54.20
26342;DHT22;14054;50.108;8.640;2024-03-02T12:36:40;21.30;57.10
26342;DHT22;14054;50.108;8.640;2024-03-02T12:39:07;23.80;53.70
26342;DHT22;14054;50.108;8.640;2024-03-02T12:44:02;24.60;91.40
26342;DHT22;14054;50.108;8.640;2024-03-02T12:46:28;22.50;51.10
26342;DHT22;14054;50.108;8.640;2024-03-02T12:48:54;24.30;50.00
26342;DHT22;14054;50.108;8.640;2024-03-02T12:51:19;21.80;50.50
26342;DHT22;14054;50.108;8.640;2024-03-02T12:53:45;21.80;51.50
26342;DHT22;14054;50.108;8.640;2024-03-02T12:56:11;22.30;51.60
26342;DHT22;14054;50.108;8.640;2024-03-02T12:58:40;21.00;53.90
26342;DHT22;14054;50.108;8.640;2024-03-02T13:01:08;21.40;54.20
26342;DHT22;14054;50.108;8.640;2024-03-02T13:03:38;21.70;52.60
26342;DHT22;14054;50.108;8.640;2024-03-02T13:06:05;20.60;55.30
26342;DHT22;14054;50.108;8.640;2024-03-02T13:08:32;20.10;55.70
26342;DHT22;14054;50.108;8.640;2024-03-02T13:10:57;19.90;57.30
26342;DHT22;14054;50.108;8.640;2024-03-02T13:13:23;22.40;53.40
26342;DHT22;14054;50.108;8.640;2024-03-02T13:18:14;23.40;83.80
26342;DHT22;14054;50.108;8.640;2024-03-02T13:20:42;20.80;78.40
26342;DHT22;14054;50.108;8.640;2024-03-02T13:25:34;26.20;45.50
26342;DHT22;14054;50.108;8.640;2024-03-02T13:28:02;22.80;49.00
26342;DHT22;14054;50.108;8.640;2024-03-02T13:30:28;23.30;49.00
26342;DHT22;14054;50.108;8.640;2024-03-02T13:32:54;26.70;45.00
26342;DHT22;14054;50.108;8.640;2024-03-02T13:35:20;27.50;42.10
26342;DHT22;14054;50.108;8.640;2024-03-02T13:37:45;23.50;45.40
26342;DHT22;14054;50.108;8.640;2024-03-02T13:40:11;22.10;48.40
26342;DHT22;14054;50.108;8.640;2024-03-02T13:42:40;22.40;48.70
26342;DHT22;14054;50.108;8.640;2024-03-02T13:45:06;22.30;49.60
26342;DHT22;14054;50.108;8.640;2024-03-02T13:47:31;20.00;51.60
26342;DHT22;14054;50.108;8.640;2024-03-02T13:49:57;17.90;57.50
26342;DHT22;14054;50.108;8.640;2024-03-02T13:52:23;18.00;59.40
26342;DHT22;14054;50.108;8.640;2024-03-02T13:54:51;18.60;58.60
26342;DHT22;14054;50.108;8.640;2024-03-02T13:57:17;18.60;57.90
26342;DHT22;14054;50.108;8.640;2024-03-02T13:59:45;18.40;57.90
26342;DHT22;14054;50.108;8.640;2024-03-02T14:02:11;17.20;60.50
26342;DHT22;14054;50.108;8.640;2024-03-02T14:04:37;17.00;68.30
26342;DHT22;14054;50.108;8.640;2024-03-02T14:07:04;17.40;62.00
26342;DHT22;14054;50.108;8.640;2024-03-02T14:09:32;19.10;58.80
26342;DHT22;14054;50.108;8.640;2024-03-02T14:11:58;18.80;58.10
26342;DHT22;14054;50.108;8.640;2024-03-02T14:14:26;19.70;57.00
26342;DHT22;14054;50.108;8.640;2024-03-02T14:16:52;19.00;56.60
26342;DHT22;14054;50.108;8.640;2024-03-02T14:19:18;18.00;58.80
26342;DHT22;14054;50.108;8.640;2024-03-02T14:21:44;16.90;62.10
26342;DHT22;14054;50.108;8.640;2024-03-02T14:24:09;15.90;65.50
26342;DHT22;14054;50.108;8.640;2024-03-02T14:26:35;15.50;67.80
26342;DHT22;14054;50.108;8.640;2024-03-02T14:29:04;15.20;68.60
26342;DHT22;14054;50.108;8.640;2024-03-02T14:31:30;15.10;70.00
26342;DHT22;14054;50.108;8.640;2024-03-02T14:34:00;15.00;70.60
26342;DHT22;14054;50.108;8.640;2024-03-02T14:36:28;15.00;71.10
26342;DHT22;14054;50.108;8.640;2024-03-02T14:38:54;14.90;71.50
26342;DHT22;14054;50.108;8.640;2024-03-02T14:41:20;15.00;71.60
26342;DHT22;14054;50.108;8.640;2024-03-02T14:43:45;15.00;71.70
26342;DHT22;14054;50.108;8.640;2024-03-02T14:46:11;14.90;72.30
26342;DHT22;14054;50.108;8.640;2024-03-02T14:48:37;14.90;72.70
26342;DHT22;14054;50.108;8.640;2024-03-02T14:51:03;14.80;72.20
26342;DHT22;14054;50.108;8.640;2024-03-02T14:53:29;14.80;72.40
26342;DHT22;14054;50.108;8.640;2024-03-02T14:55:55;14.80;72.80
26342;DHT22;14054;50.108;8.640;2024-03-02T14:58:20;14.80;73.00
26342;DHT22;14054;50.108;8.640;2024-03-02T15:00:46;14.80;72.80
26342;DHT22;14054;50.108;8.640;2024-03-02T15:03:12;14.90;73.10
26342;DHT22;14054;50.108;8.640;2024-03-02T15:05:38;15.10;72.60
26342;DHT22;14054;50.108;8.640;2024-03-02T15:08:04;15.00;72.30
26342;DHT22;14054;50.108;8.640;2024-03-02T15:10:30;14.80;72.20
26342;DHT22;14054;50.108;8.640;2024-03-02T15:12:57;14.70;72.80
26342;DHT22;14054;50.108;8.640;2024-03-02T15:15:22;14.70;73.30
26342;DHT22;14054;50.108;8.640;2024-03-02T15:17:48;14.80;73.10
26342;DHT22;14054;50.108;8.640;2024-03-02T15:20:14;14.90;73.30
26342;DHT22;14054;50.108;8.640;2024-03-02T15:22:40;14.70;73.60
26342;DHT22;14054;50.108;8.640;2024-03-02T15:25:06;14.70;73.80
26342;DHT22;14054;50.108;8.640;2024-03-02T15:27:31;14.70;73.80
26342;DHT22;14054;50.108;8.640;2024-03-02T15:29:57;14.70;73.90
26342;DHT22;14054;50.108;8.640;2024-03-02T15:32:23;14.70;73.70
26342;DHT22;14054;50.108;8.640;2024-03-02T15:34:48;14.80;73.70
26342;DHT22;14054;50.108;8.640;2024-03-02T15:37:14;14.80;73.80
26342;DHT22;14054;50.108;8.640;2024-03-02T15:39:39;14.80;73.70
26342;DHT22;14054;50.108;8.640;2024-03-02T15:42:05;14.80;73.50
26342;DHT22;14054;50.108;8.640;2024-03-02T15:44:31;14.90;73.30
26342;DHT22;14054;50.108;8.640;2024-03-02T15:46:58;14.80;73.50
26342;DHT22;14054;50.108;8.640;2024-03-02T15:49:23;14.80;73.10
26342;DHT22;14054;50.108;8.640;2024-03-02T15:51:49;14.90;73.10